Time;durP1;ratioP1;P1;durP2;ratioP2;P2;SDS_P1;SDS_P2;PMS_P1;PMS_P2;Temp;Humidity;BMP_temperature;BMP_pressure;BME280_temperature;BME280_humidity;BME280_pressure;Samples;Min_cycle;Max_cycle;Signal;HPM_P1;HPM_P2
2022/03/18 00:00:40;;;;;;;2.40;2.05;;;22.00;37.90;;;;;;4983326;28;20061;-58
2022/03/18 00:03:06;;;;;;;2.95;2.00;;;22.00;37.80;;;;;;4985618;28;20493;-59
2022/03/18 00:05:32;;;;;;;3.63;2.15;;;22.00;37.80;;;;;;4977495;28;20054;-60
2022/03/18 00:07:58;;;;;;;2.63;2.08;;;21.90;37.80;;;;;;4969633;28;20062;-59
2022/03/18 00:10:24;;;;;;;4.03;2.65;;;22.00;37.80;;;;;;4979461;28;20129;-58
2022/03/18 00:12:53;;;;;;;2.88;2.00;;;21.90;37.70;;;;;;4980822;28;20278;-58
2022/03/18 00:15:23;;;;;;;4.07;2.00;;;21.90;37.70;;;;;;4979491;28;20082;-60
2022/03/18 00:17:48;;;;;;;2.83;2.05;;;21.90;37.70;;;;;;4980743;28;20494;-60
2022/03/18 00:20:14;;;;;;;3.65;2.50;;;21.90;37.70;;;;;;4977123;28;20125;-59
2022/03/18 00:22:42;;;;;;;3.30;2.13;;;21.80;37.60;;;;;;4974835;28;20082;-59
2022/03/18 00:25:09;;;;;;;2.63;2.20;;;21.80;37.60;;;;;;4976656;28;20035;-59
2022/03/18 00:27:35;;;;;;;3.42;2.30;;;21.80;37.60;;;;;;4977746;28;20133;-58
2022/03/18 00:30:02;;;;;;;3.78;1.90;;;21.80;37.60;;;;;;4974033;28;20051;-59
2022/03/18 00:32:28;;;;;;;2.88;2.17;;;21.70;37.60;;;;;;4976776;28;20104;-59
2022/03/18 00:34:54;;;;;;;3.63;2.35;;;21.70;37.60;;;;;;4975268;28;20042;-58
2022/03/18 00:37:19;;;;;;;2.97;2.40;;;21.70;37.70;;;;;;4976087;28;20054;-60
2022/03/18 00:39:45;;;;;;;2.15;1.95;;;21.70;37.60;;;;;;4975353;28;20038;-59
2022/03/18 00:42:12;;;;;;;5.00;2.33;;;21.60;37.60;;;;;;4975874;28;20046;-59
2022/03/18 00:44:39;;;;;;;3.63;2.40;;;21.70;37.60;;;;;;4977458;28;20495;-60
2022/03/18 00:51:59;;;;;;;3.22;2.45;;;21.60;37.50;;;;;;4976559;28;20062;-59
2022/03/18 00:52:37;;;;;;;3.13;2.42;;;21.60;37.50;;;;;;4974865;28;20133;-59
2022/03/18 00:55:03;;;;;;;3.55;2.25;;;21.60;37.50;;;;;;4990164;28;20113;-59
2022/03/18 00:57:28;;;;;;;3.08;2.33;;;21.50;37.50;;;;;;4974647;28;20081;-58
2022/03/18 00:59:54;;;;;;;2.58;2.38;;;21.50;37.50;;;;;;4974103;28;20864;-58
2022/03/18 01:02:19;;;;;;;3.25;2.17;;;21.50;37.40;;;;;;4972716;28;20294;-59
2022/03/18 01:04:45;;;;;;;3.10;2.35;;;21.50;37.40;;;;;;4975624;28;20125;-58
2022/03/18 01:07:10;;;;;;;4.18;2.38;;;21.50;37.50;;;;;;4977731;28;20137;-59
2022/03/18 01:09:36;;;;;;;4.40;2.50;;;21.40;37.40;;;;;;4962017;28;20057;-59
2022/03/18 01:12:04;;;;;;;2.88;2.28;;;21.50;37.40;;;;;;4975213;28;20073;-59
2022/03/18 01:14:30;;;;;;;2.95;1.98;;;21.40;37.40;;;;;;4978636;28;20046;-58
2022/03/18 01:16:56;;;;;;;3.47;2.40;;;21.40;37.40;;;;;;4973752;28;20046;-59
2022/03/18 01:19:21;;;;;;;3.33;2.20;;;21.40;37.40;;;;;;4974448;28;20046;-59
2022/03/18 01:21:47;;;;;;;3.17;2.20;;;21.40;37.40;;;;;;4974952;28;20060;-59
2022/03/18 01:24:12;;;;;;;4.07;2.40;;;21.40;37.40;;;;;;4974137;28;20030;-59
2022/03/18 01:26:38;;;;;;;2.65;1.83;;;21.40;37.40;;;;;;4988585;28;20078;-58
2022/03/18 01:29:04;;;;;;;3.35;2.10;;;21.40;37.40;;;;;;4978049;28;20077;-59
2022/03/18 01:31:30;;;;;;;4.05;2.38;;;21.30;37.40;;;;;;4974452;28;20722;-60
2022/03/18 01:33:56;;;;;;;2.83;2.20;;;21.30;37.30;;;;;;4975107;28;20138;-59
2022/03/18 01:36:21;;;;;;;3.90;2.13;;;21.30;37.30;;;;;;4974022;28;20128;-59
2022/03/18 01:38:47;;;;;;;2.67;2.00;;;21.30;37.40;;;;;;4973447;28;20486;-59
2022/03/18 01:41:13;;;;;;;4.60;1.98;;;21.30;37.30;;;;;;4974813;28;20043;-59
2022/03/18 01:43:41;;;;;;;3.63;2.00;;;21.20;37.20;;;;;;4973560;28;20081;-59
2022/03/18 01:46:08;;;;;;;3.45;1.83;;;21.20;37.20;;;;;;4976688;28;20046;-59
2022/03/18 01:48:34;;;;;;;2.83;1.77;;;21.20;37.20;;;;;;4975599;28;20094;-60
2022/03/18 01:51:00;;;;;;;4.05;2.20;;;21.20;37.30;;;;;;4977463;28;20174;-59
2022/03/18 01:53:25;;;;;;;3.50;2.28;;;21.20;37.20;;;;;;4975461;28;20130;-59
2022/03/18 01:55:54;;;;;;;3.08;2.20;;;21.20;38.00;;;;;;4976040;28;20070;-58
2022/03/18 01:58:21;;;;;;;4.25;2.20;;;21.20;37.30;;;;;;4969323;28;20117;-59
2022/03/18 02:00:46;;;;;;;2.80;2.15;;;21.20;37.30;;;;;;4974720;28;20046;-59
2022/03/18 02:03:12;;;;;;;3.20;2.15;;;21.20;37.20;;;;;;4974046;28;20050;-58
2022/03/18 02:05:39;;;;;;;2.25;1.65;;;21.10;37.20;;;;;;4973002;28;20085;-59
2022/03/18 02:08:07;;;;;;;3.78;2.00;;;21.10;37.20;;;;;;4974562;28;20061;-59
2022/03/18 02:10:33;;;;;;;3.33;2.20;;;21.10;37.20;;;;;;4975175;28;20050;-59
2022/03/18 02:12:59;;;;;;;3.95;2.40;;;21.10;37.20;;;;;;4973748;28;20050;-59
2022/03/18 02:15:24;;;;;;;3.10;1.83;;;21.10;37.20;;;;;;4975910;28;20043;-60
2022/03/18 02:17:50;;;;;;;3.60;2.05;;;21.10;37.20;;;;;;4975864;28;20109;-58
2022/03/18 02:20:16;;;;;;;2.78;1.85;;;21.00;37.10;;;;;;4972106;28;20486;-59
2022/03/18 02:22:41;;;;;;;4.90;2.45;;;21.00;37.10;;;;;;4974654;28;20057;-59
2022/03/18 02:25:09;;;;;;;2.53;1.85;;;21.00;37.10;;;;;;4972521;28;20892;-59
2022/03/18 02:27:37;;;;;;;2.78;1.75;;;21.00;37.10;;;;;;4975288;28;20039;-60
2022/03/18 02:30:04;;;;;;;3.35;2.05;;;21.00;37.10;;;;;;4974331;28;20097;-59
2022/03/18 02:32:31;;;;;;;2.22;2.03;;;21.00;37.90;;;;;;4972716;28;20528;-60
2022/03/18 02:34:57;;;;;;;3.15;1.70;;;21.00;37.10;;;;;;4973531;28;20901;-58
2022/03/18 02:37:23;;;;;;;3.47;2.00;;;20.90;37.00;;;;;;4972523;28;20050;-59
2022/03/18 02:39:48;;;;;;;2.50;2.13;;;21.00;37.10;;;;;;4971826;28;20054;-59
2022/03/18 02:42:14;;;;;;;3.67;2.10;;;20.90;37.10;;;;;;4973149;28;20050;-59
2022/03/18 02:44:39;;;;;;;2.67;2.00;;;20.90;37.10;;;;;;4979472;28;20070;-59
2022/03/18 02:47:05;;;;;;;3.75;2.10;;;20.90;37.10;;;;;;4971438;28;20042;-59
2022/03/18 02:49:31;;;;;;;2.85;2.13;;;20.90;37.10;;;;;;4957778;28;20246;-59
2022/03/18 02:51:57;;;;;;;2.08;1.60;;;20.80;37.00;;;;;;4972231;28;20402;-59
2022/03/18 02:54:22;;;;;;;2.25;2.00;;;20.90;37.00;;;;;;4973607;28;20085;-59
2022/03/18 02:56:49;;;;;;;2.58;1.83;;;20.80;37.10;;;;;;4972979;28;20440;-60
2022/03/18 02:59:14;;;;;;;3.85;2.20;;;20.80;37.00;;;;;;4972496;28;20080;-59
2022/03/18 03:01:40;;;;;;;2.33;1.70;;;20.80;37.00;;;;;;4964794;28;20146;-59
2022/03/18 03:04:06;;;;;;;3.42;1.98;;;20.80;37.10;;;;;;4970410;28;20081;-59
2022/03/18 03:09:19;;;;;;;3.95;1.75;;;20.80;37.00;;;;;;4973243;28;20100;-59
2022/03/18 03:11:45;;;;;;;3.30;2.13;;;20.80;37.00;;;;;;4973636;28;20042;-59
2022/03/18 03:14:12;;;;;;;3.33;2.15;;;20.80;37.00;;;;;;4973945;28;20057;-59
2022/03/18 03:16:38;;;;;;;3.47;1.98;;;20.70;37.00;;;;;;4980788;28;20051;-59
2022/03/18 03:19:03;;;;;;;3.67;2.20;;;20.80;37.00;;;;;;4972968;28;20069;-60
2022/03/18 03:21:30;;;;;;;3.15;1.88;;;20.70;36.90;;;;;;4969465;28;20038;-59
2022/03/18 03:23:56;;;;;;;2.58;1.80;;;20.70;36.90;;;;;;4986849;28;20047;-59
2022/03/18 03:26:22;;;;;;;4.82;2.00;;;20.70;37.00;;;;;;4973311;28;20559;-59
2022/03/18 03:28:48;;;;;;;2.78;1.83;;;20.70;37.00;;;;;;4972699;28;20065;-59
2022/03/18 03:31:13;;;;;;;2.25;1.80;;;20.70;37.00;;;;;;4973866;28;20047;-59
2022/03/18 03:33:39;;;;;;;1.73;1.50;;;20.70;37.00;;;;;;4971461;28;20089;-59
2022/03/18 03:36:05;;;;;;;3.58;1.95;;;20.70;37.00;;;;;;4986307;28;20042;-59
2022/03/18 03:38:30;;;;;;;4.45;2.55;;;20.70;37.00;;;;;;4972857;28;20078;-59
2022/03/18 03:40:56;;;;;;;1.95;1.48;;;20.70;37.00;;;;;;4972036;28;20130;-59
2022/03/18 03:43:22;;;;;;;2.95;1.80;;;20.60;37.00;;;;;;4973023;28;20085;-59
2022/03/18 03:45:47;;;;;;;2.90;1.85;;;20.60;37.00;;;;;;4972108;28;20059;-59
2022/03/18 03:48:13;;;;;;;1.80;1.45;;;20.60;36.90;;;;;;4971661;28;20140;-58
2022/03/18 03:50:40;;;;;;;2.08;1.65;;;20.60;36.90;;;;;;4972536;28;20758;-59
2022/03/18 03:53:07;;;;;;;2.40;1.70;;;20.60;36.90;;;;;;4973542;28;20129;-59
2022/03/18 03:55:34;;;;;;;2.63;1.98;;;20.60;36.90;;;;;;4973688;28;20124;-58
2022/03/18 03:57:59;;;;;;;3.17;1.95;;;20.60;36.90;;;;;;4977019;28;20034;-58
2022/03/18 04:00:25;;;;;;;2.67;1.75;;;20.50;36.90;;;;;;4977160;28;20049;-59
2022/03/18 04:02:51;;;;;;;3.08;1.90;;;20.60;36.90;;;;;;4975448;28;20050;-59
2022/03/18 04:05:16;;;;;;;3.22;1.80;;;20.50;36.80;;;;;;4976757;28;20046;-59
2022/03/18 04:07:44;;;;;;;2.85;2.00;;;20.60;36.90;;;;;;4976278;28;20050;-59
2022/03/18 04:10:13;;;;;;;2.65;1.77;;;20.50;36.90;;;;;;4975765;28;20047;-58
2022/03/18 04:12:39;;;;;;;2.85;1.88;;;20.50;36.80;;;;;;4977649;28;20089;-58
2022/03/18 04:15:08;;;;;;;3.05;1.85;;;20.50;36.80;;;;;;4976776;28;20442;-59
2022/03/18 04:17:38;;;;;;;2.80;1.90;;;20.50;36.80;;;;;;4978763;28;20038;-59
2022/03/18 04:20:05;;;;;;;1.92;1.50;;;20.50;36.80;;;;;;4974066;28;20054;-59
2022/03/18 04:22:30;;;;;;;2.45;1.55;;;20.50;36.80;;;;;;4972850;28;20096;-59
2022/03/18 04:24:56;;;;;;;2.70;1.90;;;20.50;36.80;;;;;;4975382;28;20049;-59
2022/03/18 04:27:22;;;;;;;3.17;1.80;;;20.40;36.70;;;;;;4977619;28;20042;-59
2022/03/18 04:29:47;;;;;;;2.65;2.00;;;20.40;36.80;;;;;;4977352;28;20053;-59
2022/03/18 04:32:13;;;;;;;3.33;1.83;;;20.40;36.80;;;;;;4976551;28;20054;-59
2022/03/18 04:34:38;;;;;;;2.95;1.55;;;20.40;36.80;;;;;;4976692;28;20069;-59
2022/03/18 04:37:04;;;;;;;2.35;1.90;;;20.40;36.80;;;;;;4975328;28;20065;-60
2022/03/18 04:39:30;;;;;;;3.22;1.63;;;20.40;36.70;;;;;;4975196;28;20544;-60
2022/03/18 04:41:55;;;;;;;1.95;1.52;;;20.40;36.70;;;;;;4975980;28;20509;-59
2022/03/18 04:44:21;;;;;;;3.47;1.70;;;20.40;36.80;;;;;;4975215;28;20049;-59
2022/03/18 04:46:48;;;;;;;2.28;1.80;;;20.40;36.70;;;;;;4974154;28;20483;-59
2022/03/18 04:49:14;;;;;;;3.13;1.55;;;20.40;36.80;;;;;;4976023;28;20049;-59
2022/03/18 04:51:39;;;;;;;3.65;2.00;;;20.40;36.70;;;;;;4974577;28;20066;-59
2022/03/18 04:54:05;;;;;;;3.38;1.80;;;20.40;36.70;;;;;;4976297;28;20050;-58
2022/03/18 04:59:15;;;;;;;2.90;1.70;;;20.40;36.80;;;;;;4976857;28;20043;-59
2022/03/18 05:01:40;;;;;;;4.30;1.88;;;20.30;36.70;;;;;;4971720;28;20046;-58
2022/03/18 05:04:06;;;;;;;2.47;1.67;;;20.40;36.70;;;;;;4973761;28;20043;-59
2022/03/18 05:06:33;;;;;;;3.03;1.70;;;20.30;36.70;;;;;;4972227;28;20558;-59
2022/03/18 05:08:59;;;;;;;2.33;1.75;;;20.30;36.70;;;;;;4974899;28;20046;-60
2022/03/18 05:11:24;;;;;;;4.00;1.88;;;20.30;36.70;;;;;;4974594;28;20299;-60
2022/03/18 05:13:51;;;;;;;2.30;1.65;;;20.30;36.70;;;;;;4974671;28;20055;-60
2022/03/18 05:16:17;;;;;;;2.47;1.35;;;20.30;36.70;;;;;;4975718;28;20042;-59
2022/03/18 05:18:43;;;;;;;2.83;1.67;;;20.30;36.70;;;;;;4977184;28;20046;-60
2022/03/18 05:21:08;;;;;;;2.60;1.60;;;20.30;36.80;;;;;;4971479;28;20595;-60
2022/03/18 05:23:34;;;;;;;5.95;2.35;;;20.30;36.80;;;;;;4974583;28;20056;-59
2022/03/18 05:25:59;;;;;;;2.75;2.10;;;20.30;36.80;;;;;;4975068;28;20715;-59
2022/03/18 05:28:26;;;;;;;5.43;1.90;;;20.20;36.70;;;;;;4973020;28;20050;-58
2022/03/18 05:30:52;;;;;;;2.60;1.70;;;20.20;36.80;;;;;;4981604;28;20086;-59
2022/03/18 05:33:19;;;;;;;2.15;1.50;;;20.30;36.90;;;;;;4974410;28;20387;-59
2022/03/18 05:35:45;;;;;;;3.53;1.90;;;20.20;36.90;;;;;;4973661;28;20042;-59
2022/03/18 05:38:11;;;;;;;3.42;1.60;;;20.20;37.00;;;;;;4976025;28;20089;-58
2022/03/18 05:40:36;;;;;;;3.28;1.67;;;20.20;37.10;;;;;;4976213;28;20046;-60
2022/03/18 05:43:02;;;;;;;3.83;1.77;;;20.20;37.10;;;;;;4976434;28;20418;-59
2022/03/18 05:45:28;;;;;;;3.05;1.60;;;20.20;37.10;;;;;;4988292;28;20072;-60
2022/03/18 05:47:53;;;;;;;3.00;1.67;;;20.20;37.10;;;;;;4974452;28;20475;-60
2022/03/18 05:50:19;;;;;;;2.88;1.77;;;20.20;37.10;;;;;;4975882;28;20498;-60
2022/03/18 05:52:45;;;;;;;2.80;1.80;;;20.10;37.10;;;;;;4973612;28;20073;-59
2022/03/18 05:55:11;;;;;;;3.42;1.80;;;20.10;37.10;;;;;;4973452;28;20050;-59
2022/03/18 05:57:38;;;;;;;4.95;1.73;;;20.10;37.10;;;;;;4972842;28;20159;-59
2022/03/18 06:00:05;;;;;;;2.83;1.63;;;20.10;37.10;;;;;;4975999;28;20173;-58
2022/03/18 06:02:30;;;;;;;2.83;1.83;;;20.10;37.20;;;;;;4974001;28;20050;-59
2022/03/18 06:04:57;;;;;;;2.97;1.50;;;20.10;37.20;;;;;;4972894;28;20047;-59
2022/03/18 06:07:22;;;;;;;3.00;1.73;;;20.10;37.20;;;;;;4974117;28;20057;-59
2022/03/18 06:12:32;;;;;;;2.90;1.80;;;20.00;37.10;;;;;;4973189;28;20082;-58
2022/03/18 06:14:58;;;;;;;2.13;1.50;;;20.10;37.20;;;;;;4975981;28;20185;-59
2022/03/18 06:17:24;;;;;;;3.72;1.83;;;20.10;37.20;;;;;;4974077;28;20046;-58
2022/03/18 06:19:49;;;;;;;2.85;1.55;;;20.10;37.20;;;;;;4974150;28;20490;-58
2022/03/18 06:22:15;;;;;;;4.13;2.17;;;20.10;37.30;;;;;;4972833;28;20057;-58
2022/03/18 06:24:40;;;;;;;8.38;1.90;;;20.10;37.30;;;;;;4968403;28;20954;-59
2022/03/18 06:27:06;;;;;;;5.78;1.70;;;20.10;37.50;;;;;;4974009;28;20563;-58
2022/03/18 06:29:32;;;;;;;2.67;1.75;;;20.10;37.60;;;;;;4972609;28;20086;-57
2022/03/18 06:32:01;;;;;;;3.80;2.03;;;20.10;37.50;;;;;;4974049;28;20050;-59
2022/03/18 06:34:27;;;;;;;3.25;1.95;;;20.10;37.30;;;;;;4974204;28;20042;-58
2022/03/18 06:36:54;;;;;;;4.22;2.00;;;20.10;37.30;;;;;;4974274;28;20046;-58
2022/03/18 06:39:22;;;;;;;2.88;1.73;;;20.10;37.30;;;;;;4979680;28;20349;-58
2022/03/18 06:41:48;;;;;;;3.50;1.73;;;20.10;37.30;;;;;;4974488;28;20573;-58
2022/03/18 06:44:14;;;;;;;2.58;1.75;;;20.10;37.40;;;;;;4974856;28;20047;-58
2022/03/18 06:46:39;;;;;;;2.15;1.95;;;20.10;37.50;;;;;;4974967;28;20401;-58
2022/03/18 06:49:06;;;;;;;2.67;1.83;;;20.20;37.50;;;;;;4972892;28;20476;-58
2022/03/18 06:51:32;;;;;;;2.20;1.80;;;20.20;37.60;;;;;;4968744;28;20082;-58
2022/03/18 06:53:58;;;;;;;3.72;2.05;;;20.20;37.60;;;;;;4974385;28;20046;-59
2022/03/18 06:56:25;;;;;;;2.63;1.67;;;20.20;37.60;;;;;;4972293;28;20046;-58
2022/03/18 06:58:51;;;;;;;2.72;1.70;;;20.20;37.70;;;;;;4972834;28;20121;-59
2022/03/18 07:01:17;;;;;;;4.07;2.05;;;20.30;37.80;;;;;;4968801;28;20046;-60
2022/03/18 07:03:42;;;;;;;2.65;1.73;;;20.30;37.80;;;;;;4970905;28;20411;-60
2022/03/18 07:06:08;;;;;;;3.58;1.70;;;20.30;37.90;;;;;;4972519;28;20038;-59
2022/03/18 07:08:34;;;;;;;4.07;1.85;;;20.30;38.10;;;;;;4969585;28;20061;-58
2022/03/18 07:11:01;;;;;;;2.38;1.73;;;20.30;38.10;;;;;;4974320;28;20057;-58
2022/03/18 07:13:26;;;;;;;2.15;1.60;;;20.40;38.20;;;;;;4973778;28;20082;-59
2022/03/18 07:15:52;;;;;;;2.50;1.70;;;20.40;38.10;;;;;;4975380;28;20458;-60
2022/03/18 07:18:17;;;;;;;5.22;2.10;;;20.40;38.20;;;;;;4975169;28;20342;-59
2022/03/18 07:20:43;;;;;;;4.35;1.90;;;20.40;38.40;;;;;;4972399;28;20054;-60
2022/03/18 07:23:11;;;;;;;4.78;2.05;;;20.50;38.50;;;;;;4973709;28;20142;-59
2022/03/18 07:25:45;;;;;;;3.08;1.95;;;20.50;38.60;;;;;;4974424;28;20042;-59
2022/03/18 07:28:12;;;;;;;2.97;1.88;;;20.50;38.50;;;;;;4972021;28;20422;-59
2022/03/18 07:30:39;;;;;;;3.47;1.80;;;20.50;38.50;;;;;;4978729;28;20058;-59
2022/03/18 07:33:05;;;;;;;3.35;2.20;;;20.50;38.50;;;;;;4976671;28;20054;-59
2022/03/18 07:35:32;;;;;;;2.40;1.63;;;20.50;38.50;;;;;;4977018;28;20043;-59
2022/03/18 07:37:57;;;;;;;2.30;1.90;;;20.50;38.60;;;;;;4977596;28;20068;-59
2022/03/18 07:40:23;;;;;;;5.13;2.10;;;20.50;38.80;;;;;;4977104;28;20047;-59
2022/03/18 07:42:57;;;;;;;2.72;1.83;;;20.50;38.80;;;;;;4973609;28;20442;-59
2022/03/18 07:45:27;;;;;;;2.70;2.03;;;20.50;38.80;;;;;;4976175;28;20046;-60
2022/03/18 07:47:55;;;;;;;2.47;1.77;;;20.50;38.80;;;;;;4975482;28;20043;-60
2022/03/18 07:50:22;;;;;;;3.00;2.20;;;20.60;39.00;;;;;;4974508;28;20058;-62
2022/03/18 07:52:52;;;;;;;2.78;1.73;;;20.50;38.90;;;;;;4976107;28;20077;-57
2022/03/18 07:55:20;;;;;;;3.03;1.90;;;20.60;39.00;;;;;;4974839;28;20081;-64
2022/03/18 07:57:46;;;;;;;3.65;2.00;;;20.60;39.00;;;;;;4972587;28;20504;-57
2022/03/18 08:00:13;;;;;;;2.33;1.88;;;20.60;38.90;;;;;;4975359;28;20042;-67
2022/03/18 08:02:43;;;;;;;2.90;1.90;;;20.60;38.80;;;;;;4973866;28;20300;-60
2022/03/18 08:05:12;;;;;;;3.58;1.98;;;20.60;39.00;;;;;;4972493;28;20082;-59
2022/03/18 08:07:39;;;;;;;4.18;2.13;;;20.60;39.20;;;;;;4972613;28;20137;-59
2022/03/18 08:10:06;;;;;;;3.22;2.10;;;20.60;39.20;;;;;;4973916;28;20050;-59
2022/03/18 08:12:31;;;;;;;2.40;1.48;;;20.60;39.20;;;;;;4974102;28;20046;-59
2022/03/18 08:14:58;;;;;;;2.28;1.98;;;20.60;39.20;;;;;;4970929;28;20454;-58
2022/03/18 08:17:25;;;;;;;4.68;2.03;;;20.60;39.20;;;;;;4976766;28;20093;-58
2022/03/18 08:19:51;;;;;;;5.07;2.42;;;20.60;39.20;;;;;;4975649;28;20046;-58
2022/03/18 08:22:20;;;;;;;3.22;2.15;;;20.70;39.30;;;;;;4974141;28;20046;-59
2022/03/18 08:24:46;;;;;;;3.00;2.10;;;20.60;39.30;;;;;;4982288;28;20066;-58
2022/03/18 08:27:11;;;;;;;3.88;2.33;;;20.60;39.30;;;;;;4990018;28;20070;-59
2022/03/18 08:29:38;;;;;;;3.75;2.28;;;20.70;39.40;;;;;;4974537;28;20045;-59
2022/03/18 08:32:05;;;;;;;4.88;1.95;;;20.70;39.40;;;;;;4975261;28;20046;-55
2022/03/18 08:34:31;;;;;;;4.75;2.25;;;20.70;39.50;;;;;;4974817;28;20086;-54
2022/03/18 08:36:56;;;;;;;4.60;2.15;;;20.70;39.60;;;;;;4974929;28;20078;-55
2022/03/18 08:39:22;;;;;;;4.38;2.60;;;20.70;39.70;;;;;;4976772;28;20058;-53
2022/03/18 08:41:47;;;;;;;2.97;1.83;;;20.70;39.60;;;;;;4976041;28;20043;-59
2022/03/18 08:44:14;;;;;;;3.97;2.25;;;20.70;39.70;;;;;;4974465;28;20042;-59
2022/03/18 08:46:39;;;;;;;5.18;2.30;;;20.70;39.70;;;;;;4974179;28;20054;-59
2022/03/18 08:49:05;;;;;;;3.63;2.25;;;20.70;39.60;;;;;;4988224;28;20053;-58
2022/03/18 08:51:30;;;;;;;2.97;2.10;;;20.70;39.50;;;;;;4975335;28;20678;-59
2022/03/18 08:53:56;;;;;;;5.85;2.63;;;20.70;39.50;;;;;;4974471;28;20082;-59
2022/03/18 08:56:22;;;;;;;6.43;2.35;;;20.70;39.70;;;;;;4974163;28;20046;-59
2022/03/18 08:58:49;;;;;;;2.80;2.13;;;20.70;39.90;;;;;;4976074;28;20050;-59
2022/03/18 09:01:14;;;;;;;4.85;2.45;;;20.70;40.00;;;;;;4972742;28;20105;-59
2022/03/18 09:03:40;;;;;;;5.03;2.10;;;20.70;40.10;;;;;;4974625;28;20047;-58
2022/03/18 09:06:07;;;;;;;5.85;2.70;;;20.70;40.30;;;;;;4978233;28;20045;-59
2022/03/18 09:08:32;;;;;;;4.90;2.50;;;20.80;40.70;;;;;;4961701;28;20054;-58
2022/03/18 09:10:58;;;;;;;3.40;2.50;;;20.80;40.90;;;;;;4974211;28;20042;-58
2022/03/18 09:13:23;;;;;;;4.78;2.28;;;20.80;40.80;;;;;;4972650;28;20080;-58
2022/03/18 09:15:50;;;;;;;3.50;2.00;;;20.80;40.80;;;;;;4976355;28;20164;-60
2022/03/18 09:18:16;;;;;;;3.60;2.17;;;20.80;40.70;;;;;;4974210;28;20055;-58
2022/03/18 09:20:42;;;;;;;4.47;2.28;;;20.80;40.70;;;;;;4971812;28;20517;-59
2022/03/18 09:23:08;;;;;;;4.25;1.95;;;20.80;40.70;;;;;;4972159;28;20075;-59
2022/03/18 09:25:35;;;;;;;4.65;2.20;;;20.90;41.00;;;;;;4956568;28;20792;-59
2022/03/18 09:28:00;;;;;;;3.03;2.17;;;20.90;40.80;;;;;;4978024;28;20122;-58
2022/03/18 09:30:26;;;;;;;4.60;2.38;;;20.80;41.00;;;;;;4968999;28;20058;-58
2022/03/18 09:32:51;;;;;;;2.20;1.80;;;20.90;41.20;;;;;;4973814;28;20105;-59
2022/03/18 09:35:17;;;;;;;3.58;2.13;;;20.90;41.10;;;;;;4975078;28;20054;-59
2022/03/18 09:37:43;;;;;;;4.07;2.10;;;20.90;41.10;;;;;;4972077;28;20082;-59
2022/03/18 09:40:09;;;;;;;3.10;1.80;;;20.90;41.10;;;;;;4971250;28;20533;-59
2022/03/18 09:42:52;;;;;;;3.67;2.00;;;20.90;41.10;;;;;;4971140;28;20098;-59
2022/03/18 09:45:18;;;;;;;3.58;2.22;;;20.90;41.30;;;;;;4974064;28;20588;-60
2022/03/18 09:47:44;;;;;;;3.55;2.20;;;20.90;41.40;;;;;;4972181;28;20136;-59
2022/03/18 09:50:10;;;;;;;4.28;2.35;;;20.90;41.50;;;;;;4973600;28;20122;-59
2022/03/18 09:52:37;;;;;;;3.78;2.00;;;20.90;41.60;;;;;;4972102;28;20729;-59
2022/03/18 09:55:03;;;;;;;4.20;2.55;;;20.90;41.50;;;;;;4971443;28;20054;-60
2022/03/18 09:57:29;;;;;;;3.88;2.00;;;20.90;41.60;;;;;;4972123;28;20046;-59
2022/03/18 09:59:54;;;;;;;4.47;2.05;;;20.90;41.60;;;;;;4973523;28;20359;-59
2022/03/18 10:02:33;;;;;;;4.00;2.15;;;20.90;41.40;;;;;;4972156;28;20054;-59
2022/03/18 10:05:06;;;;;;;2.65;2.03;;;20.90;41.40;;;;;;4972769;28;20042;-59
2022/03/18 10:07:32;;;;;;;4.00;1.98;;;20.90;41.20;;;;;;4972183;28;20061;-58
2022/03/18 10:10:03;;;;;;;4.60;2.53;;;20.90;41.10;;;;;;4973775;28;20411;-59
2022/03/18 10:12:29;;;;;;;;;;;20.90;41.00;;;;;;4970061;28;20100;-59
2022/03/18 10:15:13;;;;;;;3.85;2.30;;;20.90;41.00;;;;;;4973404;28;19969;-59
2022/03/18 10:17:47;;;;;;;3.65;1.85;;;20.90;41.80;;;;;;4972001;28;20074;-59
2022/03/18 10:20:34;;;;;;;6.03;2.28;;;20.90;40.90;;;;;;4973297;28;20524;-59
2022/03/18 10:23:16;;;;;;;3.60;2.03;;;20.90;40.80;;;;;;4970855;28;20471;-60
2022/03/18 10:25:55;;;;;;;3.17;2.00;;;20.90;40.90;;;;;;4972704;28;20569;-60
2022/03/18 10:28:39;;;;;;;3.15;1.98;;;21.00;40.90;;;;;;4971595;28;20379;-60
2022/03/18 10:31:25;;;;;;;3.05;2.08;;;20.90;40.80;;;;;;4972150;28;20046;-60
2022/03/18 10:39:38;;;;;;;2.78;1.70;;;21.00;40.90;;;;;;4974883;28;20065;-60
2022/03/18 10:42:09;;;;;;;3.00;1.70;;;20.90;40.90;;;;;;4973469;28;20046;-59
2022/03/18 10:44:59;;;;;;;3.42;1.92;;;20.90;40.90;;;;;;4988714;28;20069;-59
2022/03/18 10:47:32;;;;;;;2.65;1.77;;;20.90;41.10;;;;;;4966489;28;20062;-60
2022/03/18 10:50:00;;;;;;;3.85;1.63;;;20.90;41.10;;;;;;4972481;28;20063;-60
2022/03/18 10:52:28;;;;;;;4.15;1.67;;;21.00;41.20;;;;;;4972600;28;20537;-60
2022/03/18 10:54:56;;;;;;;3.40;1.88;;;20.90;41.20;;;;;;4974610;28;20046;-59
2022/03/18 10:57:21;;;;;;;3.28;1.75;;;20.90;41.20;;;;;;4971400;28;20461;-60
2022/03/18 10:59:47;;;;;;;2.22;1.58;;;20.90;41.20;;;;;;4973085;28;20053;-60
2022/03/18 11:02:16;;;;;;;3.03;1.90;;;20.90;41.20;;;;;;4970987;28;20053;-60
2022/03/18 11:04:42;;;;;;;3.30;2.10;;;20.90;41.20;;;;;;4974260;28;20465;-60
2022/03/18 11:12:43;;;;;;;5.90;1.88;;;20.90;41.30;;;;;;4972676;28;20057;-51
2022/03/18 11:15:10;;;;;;;4.57;2.33;;;20.90;41.30;;;;;;4974204;28;20045;-57
2022/03/18 11:17:38;;;;;;;4.70;2.10;;;20.90;41.40;;;;;;4980799;28;20133;-57
2022/03/18 11:20:05;;;;;;;4.90;2.25;;;20.90;41.40;;;;;;4971762;28;20714;-59
2022/03/18 11:22:33;;;;;;;5.70;2.35;;;20.90;41.30;;;;;;4972095;28;20050;-59
2022/03/18 11:25:00;;;;;;;4.78;2.05;;;20.90;41.40;;;;;;4970862;28;20047;-59
2022/03/18 11:27:26;;;;;;;2.80;1.45;;;20.90;41.40;;;;;;4970569;28;20054;-59
2022/03/18 11:30:18;;;;;;;4.03;2.38;;;20.90;41.40;;;;;;4974028;28;20050;-60
2022/03/18 11:32:44;;;;;;;4.60;2.10;;;20.90;41.60;;;;;;4971989;28;20070;-59
2022/03/18 11:35:09;;;;;;;5.35;2.35;;;20.90;41.60;;;;;;4972452;28;20471;-60
2022/03/18 11:37:35;;;;;;;3.38;1.80;;;20.90;41.60;;;;;;4969384;28;20042;-59
2022/03/18 11:40:19;;;;;;;3.65;1.50;;;20.90;41.60;;;;;;4971121;28;20054;-59
2022/03/18 11:42:46;;;;;;;5.03;1.85;;;20.90;41.60;;;;;;4972493;28;20058;-59
2022/03/18 11:45:32;;;;;;;4.72;1.67;;;20.90;41.60;;;;;;4955632;28;20062;-58
2022/03/18 11:47:58;;;;;;;2.17;1.38;;;20.90;41.70;;;;;;4970442;28;20431;-58
2022/03/18 11:50:41;;;;;;;4.38;1.80;;;20.90;41.70;;;;;;4974143;28;20042;-59
2022/03/18 11:53:11;;;;;;;4.38;1.60;;;20.90;41.90;;;;;;4980167;28;20141;-59
2022/03/18 11:55:36;;;;;;;2.85;1.75;;;20.90;41.90;;;;;;4970935;28;20046;-59
2022/03/18 11:58:28;;;;;;;3.70;1.75;;;20.90;42.20;;;;;;4974786;28;20062;-58
2022/03/18 12:00:54;;;;;;;6.00;1.50;;;20.90;42.30;;;;;;4971788;28;20046;-59
2022/03/18 12:03:21;;;;;;;5.15;1.80;;;20.90;42.30;;;;;;4970988;28;20122;-59
2022/03/18 12:05:55;;;;;;;4.53;1.70;;;20.90;42.30;;;;;;4972580;28;20145;-59
2022/03/18 12:08:49;;;;;;;4.20;1.63;;;20.90;42.40;;;;;;4970540;28;20058;-60
2022/03/18 12:11:44;;;;;;;5.45;1.60;;;20.90;42.50;;;;;;4974190;28;20054;-60
2022/03/18 12:14:10;;;;;;;3.72;1.80;;;20.90;42.70;;;;;;4962443;28;20055;-60
2022/03/18 12:16:36;;;;;;;4.00;1.50;;;20.90;42.50;;;;;;4974563;28;20546;-59
2022/03/18 12:19:11;;;;;;;4.13;1.65;;;20.90;42.60;;;;;;4974280;28;20054;-60
2022/03/18 12:21:42;;;;;;;3.75;1.70;;;20.90;42.60;;;;;;4977973;28;20078;-60
2022/03/18 12:24:10;;;;;;;4.78;1.77;;;20.90;42.70;;;;;;4974996;28;20054;-65
2022/03/18 12:26:37;;;;;;;3.72;1.55;;;20.90;42.70;;;;;;4974997;28;20050;-59
2022/03/18 12:29:03;;;;;;;4.00;1.35;;;20.90;42.80;;;;;;4976837;28;20042;-60
2022/03/18 12:31:29;;;;;;;3.35;1.73;;;20.90;42.90;;;;;;4987674;28;20058;-60
2022/03/18 12:33:59;;;;;;;4.07;1.20;;;20.90;42.90;;;;;;4975950;28;20129;-59
2022/03/18 12:36:27;;;;;;;2.58;1.13;;;20.90;43.00;;;;;;4973763;28;20058;-59
2022/03/18 12:39:06;;;;;;;3.25;1.60;;;20.90;43.30;;;;;;4974154;28;20057;-60
2022/03/18 12:41:32;;;;;;;2.92;1.38;;;20.90;43.30;;;;;;4973974;28;20066;-59
2022/03/18 12:43:58;;;;;;;4.32;1.65;;;20.90;43.40;;;;;;4975934;28;20034;-60
2022/03/18 12:46:24;;;;;;;3.60;1.67;;;21.00;43.50;;;;;;4973272;28;20065;-59
2022/03/18 12:48:50;;;;;;;3.55;1.50;;;21.00;43.50;;;;;;4974874;28;20038;-59
2022/03/18 12:51:15;;;;;;;4.00;1.70;;;21.00;43.50;;;;;;4975014;28;20111;-59
2022/03/18 12:53:46;;;;;;;5.28;1.50;;;21.00;43.40;;;;;;4975781;28;20054;-61
2022/03/18 12:56:19;;;;;;;;;;;21.00;43.30;;;;;;4971608;28;20138;-61
2022/03/18 12:58:46;;;;;;;4.15;1.30;;;21.00;43.20;;;;;;4973529;28;19922;-60
2022/03/18 13:01:12;;;;;;;1.98;1.15;;;21.00;43.30;;;;;;4990394;28;20050;-59
2022/03/18 13:03:49;;;;;;;3.45;1.50;;;20.90;43.30;;;;;;4978090;28;20877;-60
2022/03/18 13:06:22;;;;;;;3.45;1.10;;;21.00;43.30;;;;;;4976341;28;20081;-59
2022/03/18 13:08:50;;;;;;;3.38;1.23;;;21.00;44.10;;;;;;4975080;28;20530;-59
2022/03/18 13:11:17;;;;;;;2.92;1.27;;;21.00;43.40;;;;;;4975613;28;20114;-61